• Join FlightAware (Why Join?)
  • Login
  • US Flag 
08:17AM EDT


 

Airport Tracker/Info


-or-


 

Live Flight TrackerFlight Track Log ✈ N63981 ✈ 02-May-2013 ✈ 2G9 - KAKH

Flight Track Log - Related Links

Times and Time Zones

All times are in EDT time to prevent confusion due to time zone crossing. See the N63981 flight status page for this flight to view local times or setup timezone preferences in your user account.

Time Position Orientation Groundspeed Altitude Reporting Facility
EDT Latitude Longitude Course Direction KTS MPH feet Rate Location/Type
04:13PM 40.0606 -79.0178 203° Southwest 112 129 2,800  Level Cleveland Center
04:14PM 40.0589 -79.0369 264° West 126 145 3,000 480 Climbing Cleveland Center
04:15PM 40.0383 -79.0672 228° Southwest 129 148 3,500 660 Climbing Cleveland Center
04:16PM 40.0072 -79.0842 203° Southwest 117 135 4,300 720 Climbing Cleveland Center
04:17PM 39.9761 -79.0875 185° South 111 128 5,000 600 Climbing Cleveland Center
04:18PM 39.9428 -79.0992 195° South 114 131 5,700 540 Climbing Cleveland Center
04:19PM 39.7888 -79.1394 203° Southwest  Level FlightAware Approximate
04:19PM 39.9139 -79.1133 201° Southwest 114 131 6,100  Level Cleveland Center
04:20PM 39.8828 -79.1194 189° South 113 130 6,400 240 Climbing Cleveland Center
04:21PM 39.8517 -79.1364 203° Southwest 115 132 6,700 300 Climbing Cleveland Center
04:22PM 39.8206 -79.1478 196° South 115 132 7,100 360 Climbing Cleveland Center
04:23PM 39.7914 -79.1619 200° South 115 132 7,500 420 Climbing Cleveland Center
04:24PM 39.7603 -79.1761 199° South 117 135 8,000 240 Climbing Cleveland Center
04:25PM 39.7272 -79.1983 207° Southwest 126 145 8,000  Level Cleveland Center
04:26PM 39.6881 -79.2181 201° Southwest 144 166 8,000 -60 Level Cleveland Center
04:28PM 39.6077 -79.2426 193° South  Level FlightAware Approximate
04:35PM 39.3193 -79.4009 204° Southwest  Level FlightAware Approximate
04:36PM 39.2785 -79.4241 204° Southwest  Level FlightAware Approximate
04:36PM 39.2831 -79.4528 204° Southwest 150 173 7,900  Level Washington Center
04:37PM 39.2377 -79.4473 204° Southwest  Level FlightAware Approximate
04:38PM 39.1968 -79.4705 204° Southwest  Level FlightAware Approximate
04:38PM 39.2467 -79.4753 206° Southwest 150 173 7,900  Level Washington Center
04:38PM 39.2086 -79.4972 204° Southwest 150 173 7,900  Level Washington Center
04:39PM 39.1560 -79.4936 204° Southwest  Level FlightAware Approximate
04:39PM 39.1703 -79.5192 204° Southwest 155 178 7,900  Level Washington Center
04:40PM 39.1152 -79.5167 204° Southwest  Level FlightAware Approximate
04:41PM 39.0743 -79.5398 204° Southwest  Level FlightAware Approximate
04:41PM 39.1301 -79.5390 201° Southwest  Level FlightAware Approximate
04:45PM 38.9769 -79.6289 201° Southwest 171 197 7,900  Level Washington Center
04:46PM 38.9374 -79.6457 198° South  Level Estimated
04:46PM 38.9386 -79.6511 198° South 156 180 7,900  Level Washington Center
04:47PM 38.9003 -79.6756 206° Southwest 145 167 7,900  Level Washington Center
04:47PM 38.8642 -79.6950 203° Southwest 145 167 7,900  Level Washington Center
04:48PM 38.8579 -79.6729 201° Southwest  Level FlightAware Approximate
04:48PM 38.8281 -79.7142 202° Southwest 145 167 7,900  Level Washington Center
04:49PM 38.8190 -79.6919 201° Southwest  Level FlightAware Approximate
04:49PM 38.7900 -79.7358 204° Southwest 145 167 7,900  Level Washington Center
04:50PM 38.7801 -79.7109 201° Southwest  Level FlightAware Approximate
04:50PM 38.7558 -79.7528 201° Southwest 150 173 8,000  Level Washington Center
04:52PM 38.7178 -79.7692 199° South 150 173 8,300 240 Climbing Washington Center
04:52PM 38.6858 -79.7861 202° Southwest 150 173 8,500 240 Climbing Washington Center
04:53PM 38.6607 -79.7627 198° South  Level Estimated
04:53PM 38.6478 -79.8078 204° Southwest 145 167 8,800  Level Washington Center
04:54PM 38.6211 -79.7793 198° South  Level Estimated
04:54PM 38.6117 -79.8244 200° South 145 167 9,100  Level Washington Center
04:56PM 38.5753 -79.8461 205° Southwest 145 167 9,400 240 Climbing Washington Center
04:56PM 38.5414 -79.8628 201° Southwest 140 161 9,600 240 Climbing Washington Center
04:57PM 38.5117 -79.8822 207° Southwest 134 154 9,900 240 Climbing Washington Center
04:59PM 38.4778 -79.8961 198° South 134 154 10,100 60 Climbing Washington Center
04:59PM 38.4417 -79.9128 200° South 139 160 10,100  Level Washington Center
05:00PM 38.4014 -79.9314 200° South 144 166 10,100  Level Washington Center
05:01PM 38.3608 -79.9531 203° Southwest 149 171 10,100  Level Washington Center
05:03PM 38.3225 -79.9744 204° Southwest 155 178 10,100  Level Washington Center
05:04PM 38.2842 -79.9961 204° Southwest 155 178 10,100  Level Washington Center
05:04PM 38.2522 -80.0153 205° Southwest 155 178 10,100  Level Washington Center
05:05PM 38.2142 -80.0342 201° Southwest 155 178 10,100  Level Washington Center
05:07PM 38.1758 -80.0558 204° Southwest 155 178 10,100  Level Washington Center
05:08PM 38.1375 -80.0747 201° Southwest 155 178 10,100  Level Washington Center
05:08PM 38.0969 -80.0986 205° Southwest 155 178 10,100  Level Washington Center
05:09PM 38.0586 -80.1172 201° Southwest 155 178 10,100  Level Washington Center
05:10PM 38.0183 -80.1386 203° Southwest 155 178 10,100  Level Washington Center
05:11PM 37.9842 -80.1578 204° Southwest 155 178 10,100  Level Washington Center
05:13PM 37.9458 -80.1764 201° Southwest 155 178 10,100  Level Washington Center
05:14PM 37.9075 -80.1978 204° Southwest 155 178 10,100 -60 Level Washington Center
05:14PM 37.8692 -80.2192 204° Southwest 155 178 10,000 -60 Descending Washington Center
05:15PM 37.8286 -80.2431 205° Southwest 155 178 10,000  Level Washington Center
05:16PM 37.7883 -80.2614 200° South 155 178 10,000  Level Washington Center
05:18PM 37.7519 -80.2803 202° Southwest 155 178 10,000  Level Washington Center
05:18PM 37.7158 -80.2989 202° Southwest 155 178 10,000  Level Washington Center
05:19PM 37.6797 -80.3178 202° Southwest 155 178 10,000  Level Washington Center
05:20PM 37.6414 -80.3389 204° Southwest 155 178 10,000  Level Washington Center
05:22PM 37.6008 -80.3572 200° South 155 178 10,000  Level Washington Center
05:23PM 37.5583 -80.3808 204° Southwest 155 178 10,000  Level Washington Center
05:23PM 37.5200 -80.3967 198° South 155 178 10,000  Level Washington Center
05:24PM 37.4817 -80.4181 204° Southwest 155 178 10,000  Level Washington Center
05:26PM 37.4411 -80.4389 202° Southwest 155 178 10,000  Level Washington Center
05:27PM 37.4050 -80.4550 200° South 155 178 10,100  Climbing Washington Center
05:28PM 37.3644 -80.4783 205° Southwest 155 178 10,100  Level Washington Center
05:28PM 37.3261 -80.4994 204° Southwest 155 178 10,100  Level Washington Center
05:30PM 37.2758 -80.5231 200° South 178 205 10,100  Level Atlanta Center
05:31PM 37.2369 -80.5483 207° Southwest 167 192 10,100  Level Atlanta Center
05:32PM 37.1997 -80.5656 200° South 167 192 10,100  Level Atlanta Center
05:33PM 37.1586 -80.5831 199° South 167 192 10,100  Level Atlanta Center
05:34PM 37.1175 -80.6056 204° Southwest 167 192 10,100  Level Atlanta Center
05:35PM 37.0722 -80.6258 200° South 167 192 10,100  Level Atlanta Center
05:36PM 37.0311 -80.6458 201° Southwest 167 192 10,100  Level Atlanta Center
05:37PM 36.9900 -80.6658 201° Southwest 167 192 10,100  Level Atlanta Center
05:38PM 36.9486 -80.6831 198° South 167 192 10,100  Level Atlanta Center
05:39PM 36.9139 -80.7053 207° Southwest 167 192 10,100  Level Atlanta Center
05:40PM 36.8728 -80.7228 199° South 167 192 10,100  Level Atlanta Center
05:41PM 36.8336 -80.7450 204° Southwest 167 192 10,100  Level Atlanta Center
05:42PM 36.7925 -80.7650 201° Southwest 162 186 10,100 -60 Level Atlanta Center
05:43PM 36.7492 -80.7875 203° Southwest 162 186 10,000 -60 Descending Atlanta Center
05:44PM 36.7081 -80.8072 201° Southwest 162 186 10,000  Level Atlanta Center
05:45PM 36.6711 -80.8294 206° Southwest 162 186 10,000  Level Atlanta Center
05:46PM 36.6319 -80.8464 199° South 162 186 10,000  Level Atlanta Center
05:47PM 36.5931 -80.8689 205° Southwest 162 186 10,000  Level Atlanta Center
05:48PM 36.5517 -80.8886 201° Southwest 157 181 10,000  Level Atlanta Center
05:49PM 36.5147 -80.9106 206° Southwest 157 181 10,000  Level Atlanta Center
05:50PM 36.4756 -80.9303 202° Southwest 157 181 10,000  Level Atlanta Center
05:51PM 36.4344 -80.9550 206° Southwest 157 181 10,000  Level Atlanta Center
05:52PM 36.3956 -80.9772 205° Southwest 157 181 10,000 -180 Level Atlanta Center
05:54PM 36.3092 -81.0242 204° Southwest 157 181 9,600 -300 Descending Atlanta Center
05:55PM 36.2656 -81.0389 195° South 163 188 9,200 -360 Descending Atlanta Center
05:56PM 36.2181 -81.0508 191° South 163 188 8,900 -360 Descending Atlanta Center
05:57PM 36.1722 -81.0550 184° South 163 188 8,500 -300 Descending Atlanta Center
05:58PM 36.1264 -81.0569 182° South 163 188 8,300 -360 Descending Atlanta Center
05:59PM 36.0783 -81.0611 184° South 169 194 7,800 -420 Descending Atlanta Center
06:00PM 36.0306 -81.0628 182° South 174 200 7,500 -420 Descending Atlanta Center
06:01PM 35.9889 -81.0669 185° South 179 206 7,000 -480 Descending Atlanta Center
06:02PM 35.9389 -81.0714 184° South 179 206 6,600 -480 Descending Atlanta Center
06:02PM 35.9036 -81.0728 182° South 174 200 6,300 -420 Descending Atlanta Center
06:03PM 35.8911 -81.0756 190° South 179 206 6,200 -360 Descending Atlanta Center
06:03PM 35.8453 -81.0800 184° South 174 200 5,900 -180 Descending Atlanta Center
06:04PM 35.7994 -81.0867 187° South 164 189 5,900  Level Atlanta Center
06:05PM 35.7581 -81.0933 187° South 156 180 5,900  Level Atlanta Center
06:07PM 35.7081 -81.0978 184° South 157 181 5,900 -180 Level Atlanta Center
06:07PM 35.6644 -81.1094 192° South 167 192 5,600 -420 Descending Atlanta Center
06:08PM 35.6167 -81.1189 189° South 171 197 5,200 -420 Descending Atlanta Center
06:09PM 35.5733 -81.1331 195° South 174 200 4,900 -420 Descending Atlanta Center
06:11PM 35.5281 -81.1603 206° Southwest 172 198 4,400 -480 Descending Atlanta Center
06:11PM 35.4869 -81.1897 210° Southwest 179 206 4,000 -240 Descending Atlanta Center
06:12PM 35.4419 -81.2219 210° Southwest 171 197 4,000  Level Atlanta Center
06:13PM 35.4028 -81.2489 209° Southwest 165 190 4,000 -60 Level Atlanta Center
06:15PM 35.3617 -81.2706 203° Southwest 155 178 3,900 -360 Descending Atlanta Center
06:16PM 35.3092 -81.2647 175° South 160 184 3,300 -420 Descending Atlanta Center
06:17PM 35.2633 -81.2586 174° South 154 177 3,000 -180 Descending Atlanta Center
06:18PM 35.2297 -81.2572 178° South 142 163 3,000  Level Atlanta Center
06:19PM 35.1878 -81.2458 167° South 128 147 3,000 -300 Level Atlanta Center
06:20PM 35.1581 -81.2239 149° Southeast 132 152 2,400 -720 Descending Atlanta Center